Time;durP1;ratioP1;P1;durP2;ratioP2;P2;SDS_P1;SDS_P2;PMS_P1;PMS_P2;Temp;Humidity;BMP_temperature;BMP_pressure;BME280_temperature;BME280_humidity;BME280_pressure;Samples;Min_cycle;Max_cycle;Signal;HPM_P1;HPM_P2
2023/12/04 00:01:19;;;;;;;53.65;26.80;;;-7.90;99.90;;;;;;6278481;22;20117;-87
2023/12/04 00:04:06;;;;;;;58.85;28.60;;;-7.90;99.90;;;;;;6275853;22;20098;-89
2023/12/04 00:06:56;;;;;;;65.78;28.35;;;-7.90;99.90;;;;;;6277751;22;20349;-88
2023/12/04 00:09:43;;;;;;;53.45;26.88;;;-7.90;99.90;;;;;;6276867;22;20154;-83
2023/12/04 00:12:35;;;;;;;65.70;28.15;;;-7.90;99.90;;;;;;6277148;22;20023;-88
2023/12/04 00:15:23;;;;;;;54.97;26.65;;;-8.00;99.90;;;;;;6279320;22;20107;-86
2023/12/04 00:18:14;;;;;;;64.07;28.75;;;-8.00;99.90;;;;;;6274188;22;20094;-87
2023/12/04 00:21:03;;;;;;;64.85;29.52;;;-7.90;99.90;;;;;;6277414;22;20170;-87
2023/12/04 00:23:50;;;;;;;67.72;29.30;;;-7.70;99.90;;;;;;6278617;22;20093;-88
2023/12/04 00:26:38;;;;;;;58.30;26.30;;;-7.70;99.90;;;;;;6274531;22;20410;-86
2023/12/04 00:29:25;;;;;;;52.55;24.52;;;-7.70;99.90;;;;;;6275910;22;20448;-88
2023/12/04 00:32:12;;;;;;;55.60;25.38;;;-7.70;99.90;;;;;;6276584;22;20294;-88
2023/12/04 00:35:02;;;;;;;56.50;26.05;;;-7.70;99.90;;;;;;6272629;22;20042;-88
2023/12/04 00:37:49;;;;;;;56.95;26.15;;;-7.70;99.90;;;;;;6274908;22;20039;-86
2023/12/04 00:40:36;;;;;;;57.67;26.05;;;-7.80;99.90;;;;;;6275427;22;20422;-87
2023/12/04 00:43:23;;;;;;;53.17;25.00;;;-7.80;99.90;;;;;;6275898;22;20020;-87
2023/12/04 00:46:13;;;;;;;56.67;26.38;;;-7.80;99.90;;;;;;6275985;22;20024;-80
2023/12/04 00:49:01;;;;;;;48.97;23.70;;;-7.80;99.90;;;;;;6276410;22;20051;-88
2023/12/04 00:51:48;;;;;;;58.25;26.23;;;-7.70;99.90;;;;;;6274514;22;20139;-87
2023/12/04 00:54:39;;;;;;;59.78;25.55;;;-7.70;99.90;;;;;;6273814;22;20114;-85
2023/12/04 00:57:29;;;;;;;57.78;26.13;;;-7.80;99.90;;;;;;6277666;22;20069;-78
2023/12/04 01:00:19;;;;;;;59.20;25.58;;;-7.80;99.90;;;;;;6278059;22;20020;-88
2023/12/04 01:03:06;;;;;;;54.88;26.13;;;-7.90;99.90;;;;;;6274998;22;20262;-83
2023/12/04 01:05:53;;;;;;;52.65;24.25;;;-8.00;99.90;;;;;;6273554;22;20408;-86
2023/12/04 01:08:44;;;;;;;52.72;24.48;;;-8.00;99.90;;;;;;6273975;22;20050;-86
2023/12/04 01:11:31;;;;;;;48.72;24.38;;;-7.90;99.90;;;;;;6275901;22;20030;-87
2023/12/04 01:14:19;;;;;;;47.13;22.15;;;-7.90;99.90;;;;;;6272129;22;20047;-88
2023/12/04 01:17:06;;;;;;;52.78;20.58;;;-8.00;99.90;;;;;;6275035;22;20425;-88
2023/12/04 01:19:57;;;;;;;49.03;23.48;;;-8.00;99.90;;;;;;6273683;22;20051;-87
2023/12/04 01:22:46;;;;;;;52.00;24.20;;;-7.90;99.90;;;;;;6273573;22;20034;-87
2023/12/04 01:25:38;;;;;;;45.35;21.23;;;-7.80;99.90;;;;;;6275161;22;20024;-85
2023/12/04 01:28:25;;;;;;;51.22;22.48;;;-7.60;99.90;;;;;;6283109;22;20110;-87
2023/12/04 01:31:13;;;;;;;44.30;21.13;;;-7.50;99.90;;;;;;6277344;22;20387;-86
2023/12/04 01:34:01;;;;;;;41.15;19.92;;;-7.40;99.90;;;;;;6275932;22;20070;-83
2023/12/04 01:36:48;;;;;;;39.22;19.90;;;-7.40;99.90;;;;;;6277427;22;20028;-86
2023/12/04 01:39:36;;;;;;;45.00;21.35;;;-7.40;99.90;;;;;;6276508;22;20024;-88
2023/12/04 01:42:23;;;;;;;48.95;23.63;;;-7.40;99.90;;;;;;6273931;22;20098;-87
2023/12/04 01:45:13;;;;;;;41.50;19.38;;;-7.30;99.90;;;;;;6270959;22;20030;-80
2023/12/04 01:48:00;;;;;;;47.55;20.58;;;-7.20;99.90;;;;;;6275932;22;20047;-87
2023/12/04 01:50:47;;;;;;;45.28;21.08;;;-7.30;99.90;;;;;;6274021;22;20068;-87
2023/12/04 01:53:39;;;;;;;45.42;21.88;;;-7.40;99.90;;;;;;6272960;22;20023;-87
2023/12/04 01:56:26;;;;;;;43.78;20.35;;;-7.30;99.90;;;;;;6273839;22;20035;-86
2023/12/04 01:59:17;;;;;;;44.85;21.50;;;-7.40;99.90;;;;;;6272206;22;20282;-87
2023/12/04 02:02:07;;;;;;;48.13;21.05;;;-7.40;99.90;;;;;;6271527;22;20035;-85
2023/12/04 02:04:57;;;;;;;46.83;21.67;;;-7.50;99.90;;;;;;6276857;22;20051;-86
2023/12/04 02:07:44;;;;;;;41.90;20.08;;;-7.60;99.90;;;;;;6275626;22;20055;-87
2023/12/04 02:10:31;;;;;;;46.90;20.42;;;-7.70;99.90;;;;;;6272658;22;20166;-88
2023/12/04 02:13:19;;;;;;;46.72;20.40;;;-7.70;99.90;;;;;;6274698;22;20070;-86
2023/12/04 02:16:09;;;;;;;44.33;21.30;;;-7.80;99.90;;;;;;6275124;22;20039;-87
2023/12/04 02:18:57;;;;;;;43.67;22.50;;;-7.80;99.90;;;;;;6272843;22;20024;-86
2023/12/04 02:21:44;;;;;;;43.03;20.63;;;-7.70;99.90;;;;;;6274372;22;20024;-87
2023/12/04 02:24:34;;;;;;;41.53;18.88;;;-7.70;99.90;;;;;;6275080;22;20027;-87
2023/12/04 02:27:28;;;;;;;39.78;19.80;;;-7.70;99.90;;;;;;6275463;22;20019;-85
2023/12/04 02:30:18;;;;;;;37.28;18.95;;;-7.80;99.90;;;;;;6274792;22;20091;-88
2023/12/04 02:33:06;;;;;;;40.00;19.60;;;-7.90;99.90;;;;;;6274262;22;20126;-85
2023/12/04 02:35:57;;;;;;;40.22;19.50;;;-8.00;99.90;;;;;;6271966;22;20051;-88
2023/12/04 02:38:44;;;;;;;42.42;18.38;;;-8.00;99.90;;;;;;6274491;22;20031;-86
2023/12/04 02:41:31;;;;;;;43.30;21.30;;;-7.90;99.90;;;;;;6270941;22;20030;-83
2023/12/04 02:44:21;;;;;;;42.72;20.83;;;-7.70;99.90;;;;;;6272357;22;20079;-88
2023/12/04 02:47:08;;;;;;;38.70;19.35;;;-7.50;99.90;;;;;;6272798;22;20024;-87
2023/12/04 02:49:56;;;;;;;39.35;19.05;;;-7.40;99.90;;;;;;6273943;22;20023;-85
2023/12/04 02:52:44;;;;;;;40.35;20.17;;;-7.40;99.90;;;;;;6269881;22;20027;-86
2023/12/04 02:55:33;;;;;;;45.22;18.98;;;-7.50;99.90;;;;;;6270882;22;20024;-88
2023/12/04 02:58:21;;;;;;;43.92;20.40;;;-7.50;99.90;;;;;;6273669;22;20030;-86
2023/12/04 03:01:08;;;;;;;46.90;19.67;;;-7.40;99.90;;;;;;6273024;22;20034;-81
2023/12/04 03:03:57;;;;;;;42.05;19.70;;;-7.30;99.90;;;;;;6274354;22;20085;-86
2023/12/04 03:06:45;;;;;;;47.10;20.58;;;-7.40;99.90;;;;;;6274619;22;20024;-87
2023/12/04 03:09:32;;;;;;;43.22;19.65;;;-7.40;99.90;;;;;;6268061;22;20145;-86
2023/12/04 03:12:38;;;;;;;43.33;19.42;;;-7.50;99.90;;;;;;6274426;22;20038;-79
2023/12/04 03:15:28;;;;;;;40.92;19.02;;;-7.50;99.90;;;;;;6273428;22;20023;-87
2023/12/04 03:18:15;;;;;;;40.72;18.85;;;-7.50;99.90;;;;;;6276382;22;20153;-87
2023/12/04 03:21:03;;;;;;;41.35;18.42;;;-7.50;99.90;;;;;;6271643;22;20024;-84
2023/12/04 03:23:50;;;;;;;38.10;17.30;;;-7.50;99.90;;;;;;6278200;22;20035;-86
2023/12/04 03:26:37;;;;;;;41.08;19.05;;;-7.50;99.90;;;;;;6282140;22;20042;-86
2023/12/04 03:29:27;;;;;;;40.85;18.65;;;-7.50;99.90;;;;;;6278671;22;20530;-86
2023/12/04 03:32:15;;;;;;;36.58;16.98;;;-7.40;99.90;;;;;;6274207;22;20434;-86
2023/12/04 03:35:03;;;;;;;41.28;18.33;;;-7.40;99.90;;;;;;6271472;22;20027;-85
2023/12/04 03:37:50;;;;;;;40.45;18.40;;;-7.30;99.90;;;;;;6272957;22;20252;-86
2023/12/04 03:40:40;;;;;;;42.15;19.30;;;-7.30;99.90;;;;;;6271986;22;20020;-87
2023/12/04 03:43:27;;;;;;;37.47;18.02;;;-7.20;99.90;;;;;;6272594;22;20487;-87
2023/12/04 03:46:16;;;;;;;42.92;19.85;;;-7.20;99.90;;;;;;6269477;22;20023;-84
2023/12/04 03:49:05;;;;;;;39.15;20.75;;;-7.00;99.90;;;;;;6277036;22;20038;-79
2023/12/04 03:51:52;;;;;;;45.05;21.17;;;-7.00;99.90;;;;;;6275834;22;20028;-87
2023/12/04 03:54:40;;;;;;;41.42;18.50;;;-7.00;99.90;;;;;;6271150;22;20060;-85
2023/12/04 03:57:28;;;;;;;42.33;19.58;;;-6.90;99.90;;;;;;6270623;22;20367;-80
2023/12/04 04:00:16;;;;;;;40.53;19.55;;;-6.90;99.90;;;;;;6275776;22;20157;-87
2023/12/04 04:03:03;;;;;;;41.80;18.48;;;-6.80;99.90;;;;;;6273430;22;20023;-87
2023/12/04 04:05:53;;;;;;;40.38;18.77;;;-6.70;99.90;;;;;;6274930;22;20027;-87
2023/12/04 04:08:40;;;;;;;39.97;18.10;;;-6.70;99.90;;;;;;6275595;22;20024;-88
2023/12/04 04:11:27;;;;;;;40.35;18.58;;;-6.60;99.90;;;;;;6275427;22;20073;-87
2023/12/04 04:14:14;;;;;;;42.35;18.95;;;-6.50;99.90;;;;;;6270906;22;20028;-86
2023/12/04 04:17:01;;;;;;;41.22;19.23;;;-6.40;99.90;;;;;;6274391;22;20027;-87
2023/12/04 04:19:49;;;;;;;41.67;19.88;;;-6.30;99.90;;;;;;6269534;22;20382;-88
2023/12/04 04:22:40;;;;;;;43.15;20.25;;;-6.10;99.90;;;;;;6272645;22;20024;-87
2023/12/04 04:25:27;;;;;;;41.97;18.95;;;-5.90;99.90;;;;;;6273983;22;20161;-88
2023/12/04 04:28:15;;;;;;;44.05;20.77;;;-5.80;99.90;;;;;;6275135;22;20023;-85
2023/12/04 04:31:07;;;;;;;38.20;19.65;;;-5.80;99.90;;;;;;6271449;22;20426;-87
2023/12/04 04:33:54;;;;;;;;;;;-5.80;99.90;;;;;;6276948;22;20027;-78
2023/12/04 04:36:43;;;;;;;40.05;19.30;;;-5.90;99.90;;;;;;6276847;22;19915;-87
2023/12/04 04:39:31;;;;;;;41.75;19.95;;;-5.90;99.90;;;;;;6273660;22;20615;-87
2023/12/04 04:42:18;;;;;;;40.50;18.88;;;-5.90;99.90;;;;;;6276739;22;20027;-81
2023/12/04 04:45:06;;;;;;;42.63;20.20;;;-5.90;99.90;;;;;;6272965;22;20019;-86
2023/12/04 04:47:53;;;;;;;39.60;18.48;;;-5.90;99.90;;;;;;6273799;22;20024;-87
2023/12/04 04:50:40;;;;;;;37.50;19.58;;;-5.80;99.90;;;;;;6274053;22;20028;-87
2023/12/04 04:53:32;;;;;;;38.97;18.42;;;-5.80;99.90;;;;;;6271356;22;20028;-88
2023/12/04 04:56:21;;;;;;;40.65;20.38;;;-5.80;99.90;;;;;;6275440;22;20310;-87
2023/12/04 04:59:09;;;;;;;36.47;18.63;;;-5.80;99.90;;;;;;6273272;22;20019;-86
2023/12/04 05:01:56;;;;;;;35.97;17.80;;;-5.70;99.90;;;;;;6273054;22;20026;-85
2023/12/04 05:04:44;;;;;;;36.50;18.55;;;-5.70;99.90;;;;;;6273356;22;20034;-85
2023/12/04 05:07:31;;;;;;;38.78;17.67;;;-5.70;99.90;;;;;;6273405;22;20031;-85
2023/12/04 05:10:21;;;;;;;37.22;17.80;;;-5.70;99.90;;;;;;6275496;22;20038;-85
2023/12/04 05:13:10;;;;;;;34.72;17.55;;;-5.60;99.90;;;;;;6273316;22;20091;-86
2023/12/04 05:16:00;;;;;;;38.30;17.75;;;-5.70;99.90;;;;;;6272029;22;20027;-86
2023/12/04 05:18:47;;;;;;;37.78;18.23;;;-5.70;99.90;;;;;;6273379;22;20094;-79
2023/12/04 05:21:34;;;;;;;35.97;17.35;;;-5.70;99.90;;;;;;6277367;22;20104;-87
2023/12/04 05:24:22;;;;;;;36.55;17.95;;;-5.70;99.90;;;;;;6282483;22;20159;-86
2023/12/04 05:27:09;;;;;;;37.95;18.25;;;-5.80;99.90;;;;;;6281309;22;20019;-86
2023/12/04 05:29:56;;;;;;;35.78;17.65;;;-5.90;99.90;;;;;;6275940;22;20027;-86
2023/12/04 05:32:43;;;;;;;43.00;21.05;;;-5.90;99.90;;;;;;6277289;22;20034;-83
2023/12/04 05:35:33;;;;;;;39.33;18.70;;;-6.00;99.90;;;;;;6274230;22;20115;-88
2023/12/04 05:38:21;;;;;;;38.78;17.35;;;-6.10;99.90;;;;;;6278452;22;20051;-87
2023/12/04 05:41:08;;;;;;;40.65;19.40;;;-6.30;99.90;;;;;;6272218;22;20019;-86
2023/12/04 05:43:57;;;;;;;36.55;17.80;;;-6.30;99.90;;;;;;6276026;22;20023;-86
2023/12/04 05:46:49;;;;;;;33.05;17.08;;;-6.30;99.90;;;;;;6275937;22;20024;-87
2023/12/04 05:49:36;;;;;;;35.67;17.42;;;-6.30;99.90;;;;;;6276849;22;20028;-86
2023/12/04 05:52:24;;;;;;;36.30;17.58;;;-6.20;99.90;;;;;;6284746;22;20028;-82
2023/12/04 05:55:11;;;;;;;35.35;17.50;;;-6.00;99.90;;;;;;6281428;22;20038;-79
2023/12/04 05:57:58;;;;;;;34.90;17.13;;;-5.90;99.90;;;;;;6286461;22;20053;-83
2023/12/04 06:00:49;;;;;;;38.08;18.95;;;-5.80;99.90;;;;;;6284597;22;20023;-85
2023/12/04 06:03:36;;;;;;;41.22;18.25;;;-5.90;99.90;;;;;;6284874;22;20077;-85
2023/12/04 06:06:26;;;;;;;35.63;16.90;;;-5.80;99.90;;;;;;6285973;22;20028;-79
2023/12/04 06:09:16;;;;;;;32.63;15.80;;;-5.70;99.90;;;;;;6286548;22;20028;-85
2023/12/04 06:12:08;;;;;;;32.08;15.48;;;-5.50;99.90;;;;;;6285034;22;20111;-85
2023/12/04 06:14:58;;;;;;;35.95;18.15;;;-5.40;99.90;;;;;;6284568;22;20023;-86
2023/12/04 06:17:45;;;;;;;32.72;16.63;;;-5.30;99.90;;;;;;6275955;22;20019;-83
2023/12/04 06:20:33;;;;;;;32.80;16.90;;;-5.30;99.90;;;;;;6276795;22;20019;-82
2023/12/04 06:23:20;;;;;;;34.92;16.92;;;-5.40;99.90;;;;;;6272953;22;20410;-84
2023/12/04 06:26:08;;;;;;;28.80;14.23;;;-5.30;99.90;;;;;;6279814;22;20024;-83
2023/12/04 06:28:58;;;;;;;29.67;15.05;;;-5.30;99.90;;;;;;6282733;22;20039;-83
2023/12/04 06:31:48;;;;;;;30.30;15.13;;;-5.30;99.90;;;;;;6283043;22;20406;-80
2023/12/04 06:34:35;;;;;;;26.58;14.88;;;-5.30;99.90;;;;;;6278628;22;20065;-80
2023/12/04 06:37:25;;;;;;;27.80;13.88;;;-5.20;99.90;;;;;;6279254;22;20023;-81
2023/12/04 06:40:13;;;;;;;27.55;15.13;;;-5.10;99.90;;;;;;6279003;22;20395;-75
2023/12/04 06:43:01;;;;;;;30.63;14.65;;;-5.00;99.90;;;;;;6283084;22;20027;-77
2023/12/04 06:45:50;;;;;;;32.20;15.63;;;-4.90;77.20;;;;;;6284292;22;20276;-79
2023/12/04 06:48:38;;;;;;;34.88;16.42;;;-5.00;52.50;;;;;;6286905;22;20031;-79
2023/12/04 06:51:27;;;;;;;30.77;16.08;;;-5.00;48.50;;;;;;6291153;22;20081;-77
2023/12/04 06:54:17;;;;;;;32.17;16.40;;;-4.90;87.20;;;;;;6293935;22;20100;-80
2023/12/04 06:57:06;;;;;;;37.30;17.75;;;-4.90;44.00;;;;;;6285125;22;20070;-79
2023/12/04 06:59:56;;;;;;;37.08;17.85;;;-5.00;35.20;;;;;;6275750;22;20020;-79
2023/12/04 07:02:46;;;;;;;29.92;16.15;;;-5.10;38.20;;;;;;6286059;22;20023;-86
2023/12/04 07:05:40;;;;;;;38.85;17.75;;;-5.00;87.90;;;;;;6284292;22;20019;-88
2023/12/04 07:08:29;;;;;;;45.17;21.70;;;-5.00;94.80;;;;;;6285729;22;20043;-85
2023/12/04 07:11:17;;;;;;;47.00;22.05;;;-5.00;98.20;;;;;;6282676;22;20020;-87
2023/12/04 07:14:12;;;;;;;50.38;22.13;;;-5.10;93.70;;;;;;6286192;22;20030;-85
2023/12/04 07:17:03;;;;;;;54.63;25.55;;;-5.10;74.80;;;;;;6287951;22;20098;-86
2023/12/04 07:19:50;;;;;;;44.80;24.52;;;-5.10;87.70;;;;;;6286649;22;20019;-83
2023/12/04 07:22:38;;;;;;;43.50;21.52;;;-5.30;58.00;;;;;;6275575;22;20030;-86
2023/12/04 07:25:25;;;;;;;41.10;19.73;;;-5.30;90.80;;;;;;6253516;22;20089;-86
2023/12/04 07:28:15;;;;;;;43.60;22.50;;;-5.30;99.90;;;;;;6278916;22;20042;-88
2023/12/04 07:31:03;;;;;;;47.53;21.85;;;-5.20;99.90;;;;;;6276649;22;20307;-83
2023/12/04 07:33:50;;;;;;;47.45;22.88;;;-5.10;99.90;;;;;;6277989;22;20027;-86
2023/12/04 07:36:40;;;;;;;45.08;22.80;;;-5.10;99.90;;;;;;6272731;22;20059;-85
2023/12/04 07:39:27;;;;;;;41.13;20.13;;;-5.30;99.90;;;;;;6277880;22;20062;-85
2023/12/04 07:42:14;;;;;;;38.28;19.92;;;-5.40;98.70;;;;;;6274496;22;20306;-86
2023/12/04 07:45:02;;;;;;;40.38;20.10;;;-5.30;99.90;;;;;;6273773;22;20283;-86
2023/12/04 07:47:50;;;;;;;38.47;20.63;;;-5.20;99.90;;;;;;6272011;22;20019;-86
2023/12/04 07:50:37;;;;;;;44.60;20.10;;;-5.00;99.90;;;;;;6277371;22;20027;-85
2023/12/04 07:53:26;;;;;;;42.53;21.25;;;-5.00;99.90;;;;;;6273169;22;20032;-86
2023/12/04 07:56:13;;;;;;;40.22;18.88;;;-5.10;99.30;;;;;;6275273;22;20040;-86
2023/12/04 07:59:01;;;;;;;35.38;17.83;;;-5.00;99.90;;;;;;6273498;22;20240;-86
2023/12/04 08:01:51;;;;;;;38.28;18.65;;;-4.80;99.90;;;;;;6273977;22;20031;-86
2023/12/04 08:04:38;;;;;;;37.25;19.73;;;-4.70;99.90;;;;;;6274338;22;20069;-87
2023/12/04 08:07:35;;;;;;;38.00;19.52;;;-4.60;99.90;;;;;;6275411;22;20418;-86
2023/12/04 08:10:25;;;;;;;42.95;21.40;;;-4.50;99.90;;;;;;6278315;22;20102;-86
2023/12/04 08:13:13;;;;;;;45.83;23.10;;;-4.70;58.90;;;;;;6275039;22;20048;-85
2023/12/04 08:16:03;;;;;;;48.25;22.83;;;-5.00;50.70;;;;;;6273075;22;20028;-81
2023/12/04 08:18:53;;;;;;;39.78;20.73;;;-5.00;56.90;;;;;;6275081;22;20027;-82
2023/12/04 08:21:43;;;;;;;35.95;19.27;;;-4.90;99.90;;;;;;6276910;22;20054;-85
2023/12/04 08:24:31;;;;;;;36.13;20.33;;;-4.60;99.90;;;;;;6276274;22;20027;-87
2023/12/04 08:27:18;;;;;;;39.50;19.77;;;-4.50;99.90;;;;;;6278092;22;20104;-82
2023/12/04 08:30:08;;;;;;;34.15;18.48;;;-4.30;99.90;;;;;;6278451;22;20432;-89
2023/12/04 08:32:55;;;;;;;34.70;18.67;;;-4.20;99.90;;;;;;6279805;22;20093;-88
2023/12/04 08:35:45;;;;;;;38.00;18.83;;;-4.10;92.80;;;;;;6275981;22;20024;-86
2023/12/04 08:38:33;;;;;;;37.22;21.55;;;-4.00;94.10;;;;;;6278377;22;20109;-87
2023/12/04 08:41:20;;;;;;;49.10;25.00;;;-4.10;24.80;;;;;;6277608;22;20034;-86
2023/12/04 08:44:08;;;;;;;45.08;23.15;;;-4.30;26.90;;;;;;6275703;22;20047;-88
2023/12/04 08:46:57;;;;;;;42.67;21.13;;;-4.30;49.00;;;;;;6274998;22;20034;-89
2023/12/04 08:49:47;;;;;;;41.78;20.67;;;-4.20;64.80;;;;;;6274902;22;20359;-88
2023/12/04 08:52:35;;;;;;;40.97;21.55;;;-4.00;99.70;;;;;;6279096;22;20110;-88
2023/12/04 08:55:23;;;;;;;44.25;20.55;;;-3.90;99.90;;;;;;6277073;22;20477;-88
2023/12/04 08:58:11;;;;;;;40.17;19.33;;;-3.80;99.90;;;;;;6276446;22;20094;-88
2023/12/04 09:01:01;;;;;;;37.25;19.80;;;-3.60;99.90;;;;;;6281012;22;20031;-87
2023/12/04 09:03:51;;;;;;;34.65;19.35;;;-3.30;99.90;;;;;;6281824;22;20019;-82
2023/12/04 09:06:41;;;;;;;33.83;18.73;;;-3.10;99.90;;;;;;6281582;22;20034;-85
2023/12/04 09:09:51;;;;;;;38.38;20.00;;;-2.80;99.90;;;;;;6280369;22;20074;-87
2023/12/04 09:12:40;;;;;;;35.63;19.30;;;-2.60;99.90;;;;;;6279381;22;20043;-85
2023/12/04 09:15:28;;;;;;;36.85;20.60;;;-2.60;39.20;;;;;;6279570;22;20047;-86
2023/12/04 09:18:16;;;;;;;45.38;24.55;;;-2.50;38.70;;;;;;6277873;22;20027;-87
2023/12/04 09:21:05;;;;;;;45.80;23.50;;;-2.30;45.80;;;;;;6280666;22;20023;-87
2023/12/04 09:23:52;;;;;;;41.13;21.38;;;-2.70;1.00;;;;;;6286631;22;20055;-88
2023/12/04 09:26:40;;;;;;;40.92;22.75;;;-2.70;1.00;;;;;;6294836;22;20020;-87
2023/12/04 09:29:30;;;;;;;41.13;22.58;;;-2.60;28.90;;;;;;6285053;22;20032;-87
2023/12/04 09:32:20;;;;;;;37.55;20.23;;;-2.50;1.00;;;;;;6282396;22;20114;-87
2023/12/04 09:35:09;;;;;;;35.40;20.65;;;-2.40;1.00;;;;;;6288174;22;20023;-87
2023/12/04 09:37:56;;;;;;;39.65;22.38;;;-2.30;1.00;;;;;;6297357;22;20063;-80
2023/12/04 09:40:45;;;;;;;41.33;20.98;;;-2.30;99.90;;;;;;6300169;22;20103;-80
2023/12/04 09:43:42;;;;;;;36.92;20.10;;;-2.30;99.90;;;;;;6298728;22;20054;-86
2023/12/04 09:46:30;;;;;;;31.70;18.13;;;-2.40;99.90;;;;;;6292053;22;20019;-86
2023/12/04 09:49:19;;;;;;;28.70;16.98;;;-2.40;99.90;;;;;;6289116;22;20020;-86
2023/12/04 09:52:08;;;;;;;32.78;16.63;;;-2.30;99.90;;;;;;6284513;22;20019;-86
2023/12/04 09:54:56;;;;;;;32.75;16.70;;;-2.20;99.90;;;;;;6283331;22;20055;-81
2023/12/04 09:57:49;;;;;;;28.45;15.30;;;-2.20;1.00;;;;;;6283188;22;20051;-86
2023/12/04 10:00:37;;;;;;;27.30;15.35;;;-2.10;99.90;;;;;;6285716;22;20043;-86
2023/12/04 10:03:25;;;;;;;31.95;16.17;;;-1.90;2.10;;;;;;6289202;22;20023;-86
2023/12/04 10:06:21;;;;;;;24.88;14.65;;;-1.80;99.90;;;;;;6292333;22;20441;-82
2023/12/04 10:09:11;;;;;;;27.92;16.60;;;-1.80;99.90;;;;;;6291628;22;20087;-88
2023/12/04 10:11:59;;;;;;;25.20;14.00;;;-1.80;99.90;;;;;;6294358;22;20058;-88
2023/12/04 10:15:06;;;;;;;24.13;14.38;;;-1.90;99.90;;;;;;6287729;22;20123;-87
2023/12/04 10:17:54;;;;;;;24.60;13.45;;;-1.90;99.90;;;;;;6288302;22;20038;-87
2023/12/04 10:20:53;;;;;;;25.85;13.55;;;-1.90;1.00;;;;;;6290658;22;20020;-87
2023/12/04 10:23:43;;;;;;;22.60;13.55;;;-1.80;1.00;;;;;;6282740;22;20137;-89
2023/12/04 10:26:30;;;;;;;26.65;15.68;;;-1.60;99.90;;;;;;6280561;22;20027;-87
2023/12/04 10:29:18;;;;;;;28.30;13.65;;;-1.40;99.90;;;;;;6280416;22;20424;-88
2023/12/04 10:32:05;;;;;;;25.33;13.35;;;-1.20;99.90;;;;;;6274779;22;20103;-88
2023/12/04 10:34:55;;;;;;;19.48;11.98;;;-0.80;99.90;;;;;;6275352;22;20020;-85
2023/12/04 10:37:43;;;;;;;23.02;13.80;;;-0.60;1.00;;;;;;6273622;22;20019;-86
2023/12/04 10:40:32;;;;;;;22.73;14.00;;;-0.30;99.90;;;;;;6272760;22;20031;-84
2023/12/04 10:43:24;;;;;;;21.52;12.75;;;-0.20;1.00;;;;;;6275459;22;20031;-85
2023/12/04 10:46:12;;;;;;;25.60;14.25;;;-0.40;99.90;;;;;;6276006;22;20020;-86
2023/12/04 10:49:03;;;;;;;25.90;14.48;;;-0.50;99.90;;;;;;6281154;22;20019;-81
2023/12/04 10:51:56;;;;;;;24.95;13.52;;;-0.30;99.90;;;;;;6278992;22;20045;-81
2023/12/04 10:54:44;;;;;;;20.77;12.77;;;0.10;1.00;;;;;;6275039;22;20047;-87
2023/12/04 10:57:38;;;;;;;20.35;12.07;;;0.50;99.90;;;;;;6274159;22;20031;-86
2023/12/04 11:00:32;;;;;;;24.42;13.40;;;0.70;8.50;;;;;;6276324;22;20024;-80
2023/12/04 11:03:36;;;;;;;25.23;13.27;;;1.00;1.00;;;;;;6275933;22;20023;-83
2023/12/04 11:06:31;;;;;;;22.65;13.57;;;1.20;1.00;;;;;;6274657;22;20034;-89
2023/12/04 11:09:26;;;;;;;21.60;13.48;;;1.40;99.90;;;;;;6278942;22;20035;-87
2023/12/04 11:12:21;;;;;;;20.13;11.65;;;1.30;84.50;;;;;;6276051;22;20020;-87
2023/12/04 11:15:13;;;;;;;22.45;12.98;;;1.10;31.30;;;;;;6276965;22;20111;-87
2023/12/04 11:18:06;;;;;;;22.45;14.27;;;0.50;44.90;;;;;;6273566;22;20134;-88
2023/12/04 11:20:56;;;;;;;;;;;0.10;78.40;;;;;;6276027;22;20084;-84
2023/12/04 11:23:46;;;;;;;21.50;13.48;;;-0.10;99.90;;;;;;6280228;22;19965;-87
2023/12/04 11:26:34;;;;;;;21.73;12.95;;;0.00;99.90;;;;;;6282941;22;20027;-88
2023/12/04 11:29:23;;;;;;;27.08;14.73;;;0.20;99.90;;;;;;6281344;22;20081;-88
2023/12/04 11:32:18;;;;;;;21.42;12.98;;;0.40;99.90;;;;;;6278155;22;20050;-85
2023/12/04 11:35:13;;;;;;;22.88;14.13;;;0.70;99.90;;;;;;6275677;22;20034;-89
2023/12/04 11:38:09;;;;;;;22.48;13.88;;;1.10;99.90;;;;;;6278238;22;20074;-89
2023/12/04 11:40:59;;;;;;;18.35;11.55;;;1.50;99.90;;;;;;6287456;22;20051;-87
2023/12/04 11:43:47;;;;;;;23.02;13.38;;;1.80;98.20;;;;;;6290868;22;20016;-87
2023/12/04 11:46:34;;;;;;;49.40;25.60;;;1.70;82.30;;;;;;6276184;22;20034;-83
2023/12/04 11:49:25;;;;;;;31.92;18.05;;;1.60;99.90;;;;;;6279991;22;20076;-78
2023/12/04 11:52:13;;;;;;;26.58;15.90;;;1.40;99.90;;;;;;6277462;22;20329;-89
2023/12/04 11:55:05;;;;;;;26.00;15.07;;;1.30;99.90;;;;;;6277694;22;20089;-90
2023/12/04 11:57:57;;;;;;;24.35;14.52;;;1.20;1.00;;;;;;6274275;22;20430;-87
2023/12/04 12:00:48;;;;;;;23.02;14.48;;;1.20;1.00;;;;;;6276500;22;20027;-81
2023/12/04 12:03:39;;;;;;;21.35;13.57;;;1.30;1.00;;;;;;6282637;22;20126;-91
2023/12/04 12:06:27;;;;;;;21.50;13.32;;;1.40;99.90;;;;;;6279338;22;20110;-86
2023/12/04 12:09:15;;;;;;;17.13;10.80;;;1.80;99.90;;;;;;6259137;22;20024;-89
2023/12/04 12:12:05;;;;;;;16.60;11.38;;;2.00;99.90;;;;;;6272982;22;20027;-88
2023/12/04 12:14:53;;;;;;;18.77;11.77;;;2.40;43.30;;;;;;6278647;22;20111;-86
2023/12/04 12:17:41;;;;;;;17.25;11.48;;;2.50;1.00;;;;;;6277974;22;20020;-89
2023/12/04 12:20:33;;;;;;;17.30;10.80;;;3.10;1.00;;;;;;6272774;22;20393;-87
2023/12/04 12:23:21;;;;;;;19.13;11.57;;;3.50;1.00;;;;;;6279506;22;20174;-88
2023/12/04 12:26:09;;;;;;;20.70;13.57;;;3.00;99.90;;;;;;6274427;22;20042;-88
2023/12/04 12:29:01;;;;;;;22.45;13.65;;;2.10;99.90;;;;;;6274234;22;20030;-89
2023/12/04 12:31:50;;;;;;;21.30;13.80;;;1.60;99.90;;;;;;6277824;22;20035;-88
2023/12/04 12:34:39;;;;;;;22.35;12.93;;;1.60;1.00;;;;;;6271480;22;20035;-87
2023/12/04 12:37:29;;;;;;;22.92;14.05;;;1.40;1.00;;;;;;6269353;22;20031;-87
2023/12/04 12:40:16;;;;;;;21.80;13.77;;;1.10;1.00;;;;;;6272343;22;20106;-88
2023/12/04 12:43:08;;;;;;;23.48;14.88;;;1.00;1.00;;;;;;6275114;22;20138;-86
2023/12/04 12:46:05;;;;;;;28.42;17.50;;;1.10;8.30;;;;;;6277551;22;20059;-86
2023/12/04 12:48:55;;;;;;;28.85;15.60;;;1.10;99.90;;;;;;6273873;22;20082;-87
2023/12/04 12:51:43;;;;;;;31.08;17.33;;;1.20;99.90;;;;;;6277683;22;20122;-81
2023/12/04 12:54:32;;;;;;;30.67;16.92;;;1.30;99.90;;;;;;6276578;22;20023;-87
2023/12/04 12:57:22;;;;;;;28.17;16.40;;;1.40;1.00;;;;;;6284973;22;20039;-86
2023/12/04 13:00:11;;;;;;;29.15;15.65;;;1.60;1.00;;;;;;6287785;22;20067;-88
2023/12/04 13:03:02;;;;;;;26.40;15.75;;;1.70;1.00;;;;;;6287771;22;20020;-82
2023/12/04 13:05:49;;;;;;;29.60;15.93;;;1.80;1.00;;;;;;6293479;22;20023;-81
2023/12/04 13:08:37;;;;;;;24.52;15.40;;;2.00;1.00;;;;;;6295266;22;20027;-81
2023/12/04 13:11:24;;;;;;;24.40;15.88;;;1.90;1.00;;;;;;6299787;22;20060;-80
2023/12/04 13:14:13;;;;;;;25.80;15.50;;;1.90;82.90;;;;;;6301881;22;20011;-79
2023/12/04 13:17:01;;;;;;;31.20;17.33;;;1.70;99.90;;;;;;6300271;22;20020;-83
2023/12/04 13:19:53;;;;;;;29.17;17.25;;;1.70;99.90;;;;;;6295580;22;20031;-85
2023/12/04 13:22:41;;;;;;;29.80;18.40;;;1.60;99.90;;;;;;6297999;22;20032;-80
2023/12/04 13:25:29;;;;;;;30.00;18.42;;;1.60;99.90;;;;;;6298047;22;20077;-80
2023/12/04 13:28:17;;;;;;;33.28;18.92;;;1.50;22.00;;;;;;6301240;22;20023;-84
2023/12/04 13:31:19;;;;;;;31.40;18.60;;;1.30;99.90;;;;;;6297967;22;20020;-84
2023/12/04 13:34:12;;;;;;;31.42;19.13;;;1.10;99.90;;;;;;6299365;22;20015;-87
2023/12/04 13:36:59;;;;;;;28.58;16.92;;;1.20;99.90;;;;;;6299414;22;20019;-85
2023/12/04 13:39:47;;;;;;;27.52;16.17;;;1.30;1.00;;;;;;6291634;22;20024;-85
2023/12/04 13:45:43;;;;;;;23.00;13.85;;;1.30;1.00;;;;;;6283822;22;20074;-86
2023/12/04 13:48:30;;;;;;;23.65;14.48;;;1.30;99.90;;;;;;6280314;22;20093;-87
2023/12/04 13:51:20;;;;;;;23.83;13.65;;;1.00;83.90;;;;;;6285278;22;20059;-82
2023/12/04 13:54:20;;;;;;;23.48;13.93;;;0.80;99.90;;;;;;6283635;22;20023;-85
2023/12/04 13:57:08;;;;;;;22.10;14.70;;;0.40;99.90;;;;;;6276574;22;20043;-85
2023/12/04 13:59:58;;;;;;;25.55;15.20;;;0.30;1.00;;;;;;6278538;22;20043;-85
2023/12/04 14:02:46;;;;;;;28.17;15.60;;;0.30;99.90;;;;;;6275350;22;20047;-88
2023/12/04 14:05:34;;;;;;;24.73;15.48;;;0.40;24.90;;;;;;6253540;22;20182;-86
2023/12/04 14:08:25;;;;;;;28.75;16.00;;;0.50;2.10;;;;;;6273717;22;20020;-87
2023/12/04 14:11:14;;;;;;;34.15;18.55;;;0.60;99.90;;;;;;6273751;22;20028;-86
2023/12/04 14:14:03;;;;;;;32.60;18.08;;;0.70;99.50;;;;;;6275462;22;20027;-86
2023/12/04 14:16:55;;;;;;;31.30;17.48;;;0.70;68.80;;;;;;6276181;22;20087;-87
2023/12/04 14:19:43;;;;;;;31.98;18.48;;;0.80;99.90;;;;;;6275458;22;20027;-89
2023/12/04 14:22:30;;;;;;;35.83;17.65;;;0.80;99.90;;;;;;6277580;22;20484;-88
2023/12/04 14:25:18;;;;;;;30.98;17.98;;;0.70;6.10;;;;;;6275548;22;20325;-87